KCEU/CEU METAR and TAF weather

Enter ICAO airport designator
Station Type Date Time Source
KCEU METAR 2021/05/07 00:54 UTC NOAA

KCEU 070054Z AUTO 26007KT 10SM CLR 17/04 A2993 RMK AO2 SLP130 T01670044


Station Type Date Time Source
KCEU Decoded METAR 2021/05/07 00:54 UTC NOAA

CLEMSON-OCONEE COUNTY AIRPORT , SC, United States (KCEU) 34-40N 082-53W 268M
May 06, 2021 - 08:54 PM EDT / 2021.05.07 0054 UTC
Wind: from the W (260 degrees) at 8 MPH (7 KT):0
Visibility: 10 mile(s):0
Sky conditions: clear
Temperature: 62.1 F (16.7 C)
Dew Point: 39.9 F (4.4 C)
Relative Humidity: 43%
Pressure (altimeter): 29.93 in. Hg (1013 hPa)
ob: KCEU 070054Z AUTO 26007KT 10SM CLR 17/04 A2993 RMK AO2 SLP130 T01670044
cycle: 1

Station Type Date Time Source
KCEU TAF UTC NOAA

Error!

Example: see airport list